sensor_id;sensor_type;location;lat;lon;timestamp;pressure;altitude;pressure_sealevel;temperature;humidity
36630;BME280;36256;42.154;23.002;2022-07-01T00:00:09;97068.72;;;21.68;86.46
36630;BME280;36256;42.154;23.002;2022-07-01T00:02:36;97075.72;;;21.67;86.15
36630;BME280;36256;42.154;23.002;2022-07-01T00:05:03;97074.19;;;21.66;87.59
36630;BME280;36256;42.154;23.002;2022-07-01T00:07:29;97080.94;;;21.63;88.83
36630;BME280;36256;42.154;23.002;2022-07-01T00:09:56;97079.44;;;21.56;88.86
36630;BME280;36256;42.154;23.002;2022-07-01T00:12:23;97084.91;;;21.54;91.99
36630;BME280;36256;42.154;23.002;2022-07-01T00:14:49;97081.06;;;21.52;91.01
36630;BME280;36256;42.154;23.002;2022-07-01T00:17:16;97074.88;;;21.48;90.53
36630;BME280;36256;42.154;23.002;2022-07-01T00:19:42;97085.22;;;21.51;91.81
36630;BME280;36256;42.154;23.002;2022-07-01T00:22:10;97078.25;;;21.46;89.21
36630;BME280;36256;42.154;23.002;2022-07-01T00:24:36;97088.13;;;21.45;91.56
36630;BME280;36256;42.154;23.002;2022-07-01T00:27:03;97084.06;;;21.35;91.39
36630;BME280;36256;42.154;23.002;2022-07-01T00:29:30;97087.25;;;21.26;92.46
36630;BME280;36256;42.154;23.002;2022-07-01T00:31:56;97092.47;;;21.22;94.05
36630;BME280;36256;42.154;23.002;2022-07-01T00:34:23;97094.09;;;21.12;93.91
36630;BME280;36256;42.154;23.002;2022-07-01T00:36:50;97094.44;;;21.03;93.30
36630;BME280;36256;42.154;23.002;2022-07-01T00:39:17;97094.72;;;20.94;92.92
36630;BME280;36256;42.154;23.002;2022-07-01T00:41:43;97101.72;;;20.93;93.46
36630;BME280;36256;42.154;23.002;2022-07-01T00:44:19;97107.16;;;20.91;92.74
36630;BME280;36256;42.154;23.002;2022-07-01T00:46:49;97112.13;;;20.85;93.64
36630;BME280;36256;42.154;23.002;2022-07-01T00:49:17;97111.63;;;20.86;93.19
36630;BME280;36256;42.154;23.002;2022-07-01T00:51:44;97116.03;;;20.87;91.49
36630;BME280;36256;42.154;23.002;2022-07-01T00:54:11;97118.09;;;20.87;92.47
36630;BME280;36256;42.154;23.002;2022-07-01T00:56:38;97117.03;;;20.90;91.31
36630;BME280;36256;42.154;23.002;2022-07-01T00:59:05;97115.47;;;20.89;93.75
36630;BME280;36256;42.154;23.002;2022-07-01T01:01:31;97121.97;;;20.89;94.12
36630;BME280;36256;42.154;23.002;2022-07-01T01:03:58;97119.66;;;20.88;92.93
36630;BME280;36256;42.154;23.002;2022-07-01T01:06:25;97126.91;;;20.89;94.02
36630;BME280;36256;42.154;23.002;2022-07-01T01:08:52;97126.41;;;20.85;93.85
36630;BME280;36256;42.154;23.002;2022-07-01T01:11:19;97127.72;;;20.84;93.36
36630;BME280;36256;42.154;23.002;2022-07-01T01:13:46;97129.28;;;20.79;93.26
36630;BME280;36256;42.154;23.002;2022-07-01T01:16:20;97132.69;;;20.78;92.96
36630;BME280;36256;42.154;23.002;2022-07-01T01:18:48;97140.44;;;20.77;92.66
36630;BME280;36256;42.154;23.002;2022-07-01T01:21:15;97142.53;;;20.77;93.41
36630;BME280;36256;42.154;23.002;2022-07-01T01:23:42;97148.47;;;20.79;92.17
36630;BME280;36256;42.154;23.002;2022-07-01T01:26:20;97140.47;;;20.72;91.93
36630;BME280;36256;42.154;23.002;2022-07-01T01:28:48;97144.63;;;20.71;94.53
36630;BME280;36256;42.154;23.002;2022-07-01T01:31:15;97142.81;;;20.68;94.95
36630;BME280;36256;42.154;23.002;2022-07-01T01:33:42;97148.06;;;20.58;95.12
36630;BME280;36256;42.154;23.002;2022-07-01T01:36:09;97143.97;;;20.48;97.00
36630;BME280;36256;42.154;23.002;2022-07-01T01:38:36;97142.19;;;20.40;97.76
36630;BME280;36256;42.154;23.002;2022-07-01T01:41:04;97148.91;;;20.37;99.38
36630;BME280;36256;42.154;23.002;2022-07-01T01:43:31;97145.31;;;20.30;99.56
36630;BME280;36256;42.154;23.002;2022-07-01T01:46:02;97145.31;;;20.30;99.41
36630;BME280;36256;42.154;23.002;2022-07-01T01:48:29;97149.47;;;20.29;99.38
36630;BME280;36256;42.154;23.002;2022-07-01T01:50:57;97150.00;;;20.22;96.87
36630;BME280;36256;42.154;23.002;2022-07-01T01:53:24;97157.00;;;20.21;96.52
36630;BME280;36256;42.154;23.002;2022-07-01T01:55:50;97161.13;;;20.15;97.32
36630;BME280;36256;42.154;23.002;2022-07-01T01:58:17;97156.19;;;20.15;97.38
36630;BME280;36256;42.154;23.002;2022-07-01T02:00:43;97165.56;;;20.10;98.69
36630;BME280;36256;42.154;23.002;2022-07-01T02:03:10;97170.19;;;20.13;99.85
36630;BME280;36256;42.154;23.002;2022-07-01T02:05:37;97171.22;;;20.16;98.61
36630;BME280;36256;42.154;23.002;2022-07-01T02:08:07;97172.00;;;20.22;98.51
36630;BME280;36256;42.154;23.002;2022-07-01T02:10:33;97172.81;;;20.22;97.41
36630;BME280;36256;42.154;23.002;2022-07-01T02:13:00;97175.41;;;20.20;97.56
36630;BME280;36256;42.154;23.002;2022-07-01T02:15:26;97174.34;;;20.23;97.43
36630;BME280;36256;42.154;23.002;2022-07-01T02:17:53;97167.34;;;20.24;99.04
36630;BME280;36256;42.154;23.002;2022-07-01T02:20:22;97177.72;;;20.22;97.34
36630;BME280;36256;42.154;23.002;2022-07-01T02:22:49;97168.09;;;20.19;99.57
36630;BME280;36256;42.154;23.002;2022-07-01T02:25:18;97174.09;;;20.10;100.00
36630;BME280;36256;42.154;23.002;2022-07-01T02:27:45;97171.78;;;20.03;100.00
36630;BME280;36256;42.154;23.002;2022-07-01T02:30:12;97180.84;;;20.02;100.00
36630;BME280;36256;42.154;23.002;2022-07-01T02:32:39;97182.38;;;20.03;100.00
36630;BME280;36256;42.154;23.002;2022-07-01T02:35:06;97187.56;;;19.99;100.00
36630;BME280;36256;42.154;23.002;2022-07-01T02:37:33;97197.94;;;20.02;100.00
36630;BME280;36256;42.154;23.002;2022-07-01T02:40:01;97197.16;;;20.01;100.00
36630;BME280;36256;42.154;23.002;2022-07-01T02:42:28;97200.25;;;20.03;100.00
36630;BME280;36256;42.154;23.002;2022-07-01T02:45:05;97207.50;;;20.04;98.71
36630;BME280;36256;42.154;23.002;2022-07-01T02:47:36;97209.06;;;20.05;97.41
36630;BME280;36256;42.154;23.002;2022-07-01T02:50:04;97214.75;;;20.05;96.99
36630;BME280;36256;42.154;23.002;2022-07-01T02:52:32;97209.31;;;20.07;96.85
36630;BME280;36256;42.154;23.002;2022-07-01T02:55:01;97209.84;;;20.06;97.44
36630;BME280;36256;42.154;23.002;2022-07-01T02:57:28;97210.88;;;20.08;99.06
36630;BME280;36256;42.154;23.002;2022-07-01T02:59:55;97209.56;;;20.09;100.00
36630;BME280;36256;42.154;23.002;2022-07-01T03:02:22;97211.66;;;20.03;100.00
36630;BME280;36256;42.154;23.002;2022-07-01T03:04:50;97207.75;;;20.01;100.00
36630;BME280;36256;42.154;23.002;2022-07-01T03:07:18;97206.47;;;20.02;100.00
36630;BME280;36256;42.154;23.002;2022-07-01T03:09:46;97210.06;;;20.02;100.00
36630;BME280;36256;42.154;23.002;2022-07-01T03:12:13;97210.06;;;20.02;100.00
36630;BME280;36256;42.154;23.002;2022-07-01T03:40:48;97223.31;;;19.72;100.00
36630;BME280;36256;42.154;23.002;2022-07-01T03:43:15;97219.94;;;19.79;100.00
36630;BME280;36256;42.154;23.002;2022-07-01T03:49:12;97222.25;;;19.92;100.00
36630;BME280;36256;42.154;23.002;2022-07-01T03:51:39;97223.81;;;19.93;99.81
36630;BME280;36256;42.154;23.002;2022-07-01T03:54:06;97231.84;;;19.94;99.13
36630;BME280;36256;42.154;23.002;2022-07-01T03:56:51;97228.22;;;19.99;100.00
36630;BME280;36256;42.154;23.002;2022-07-01T03:59:17;97233.41;;;20.01;100.00
36630;BME280;36256;42.154;23.002;2022-07-01T04:01:44;97222.78;;;20.01;100.00
36630;BME280;36256;42.154;23.002;2022-07-01T04:04:11;97232.09;;;20.07;99.64
36630;BME280;36256;42.154;23.002;2022-07-01T04:06:38;97231.06;;;20.10;98.69
36630;BME280;36256;42.154;23.002;2022-07-01T04:09:05;97228.72;;;20.14;96.91
36630;BME280;36256;42.154;23.002;2022-07-01T04:11:32;97233.91;;;20.21;97.66
36630;BME280;36256;42.154;23.002;2022-07-01T04:13:58;97246.06;;;20.27;98.11
36630;BME280;36256;42.154;23.002;2022-07-01T04:16:25;97247.13;;;20.30;98.37
36630;BME280;36256;42.154;23.002;2022-07-01T04:18:52;97251.00;;;20.32;96.96
36630;BME280;36256;42.154;23.002;2022-07-01T04:21:19;97257.50;;;20.22;94.66
36630;BME280;36256;42.154;23.002;2022-07-01T04:24:05;97253.06;;;20.04;98.72
36630;BME280;36256;42.154;23.002;2022-07-01T04:26:33;97255.66;;;20.02;97.56
36630;BME280;36256;42.154;23.002;2022-07-01T04:29:04;97250.47;;;20.06;96.84
36630;BME280;36256;42.154;23.002;2022-07-01T04:31:31;97250.47;;;20.12;96.71
36630;BME280;36256;42.154;23.002;2022-07-01T04:33:58;97258.03;;;20.20;97.07
36630;BME280;36256;42.154;23.002;2022-07-01T04:36:24;97261.63;;;20.26;96.02
36630;BME280;36256;42.154;23.002;2022-07-01T04:38:51;97256.69;;;20.32;94.72
36630;BME280;36256;42.154;23.002;2022-07-01T04:41:18;97254.63;;;20.39;96.06
36630;BME280;36256;42.154;23.002;2022-07-01T04:44:04;97256.69;;;20.44;94.04
36630;BME280;36256;42.154;23.002;2022-07-01T04:46:31;97256.91;;;20.51;94.69
36630;BME280;36256;42.154;23.002;2022-07-01T04:48:58;97254.06;;;20.57;94.90
36630;BME280;36256;42.154;23.002;2022-07-01T04:51:25;97255.06;;;20.65;96.16
36630;BME280;36256;42.154;23.002;2022-07-01T04:53:51;97245.97;;;20.72;93.31
36630;BME280;36256;42.154;23.002;2022-07-01T04:56:18;97245.19;;;20.77;94.35
36630;BME280;36256;42.154;23.002;2022-07-01T04:58:45;97248.53;;;20.86;94.29
36630;BME280;36256;42.154;23.002;2022-07-01T05:01:12;97245.59;;;20.97;92.59
36630;BME280;36256;42.154;23.002;2022-07-01T05:03:38;97254.44;;;21.05;93.18
36630;BME280;36256;42.154;23.002;2022-07-01T05:06:05;97248.16;;;21.12;91.62
36630;BME280;36256;42.154;23.002;2022-07-01T05:08:32;97247.06;;;21.26;91.57
36630;BME280;36256;42.154;23.002;2022-07-01T05:10:59;97252.72;;;21.37;89.80
36630;BME280;36256;42.154;23.002;2022-07-01T05:13:25;97252.19;;;21.33;90.56
36630;BME280;36256;42.154;23.002;2022-07-01T05:15:52;97251.66;;;21.40;90.47
36630;BME280;36256;42.154;23.002;2022-07-01T05:18:19;97251.59;;;21.51;89.61
36630;BME280;36256;42.154;23.002;2022-07-01T05:21:04;97244.81;;;21.54;89.63
36630;BME280;36256;42.154;23.002;2022-07-01T05:23:49;97255.97;;;21.52;89.75
36630;BME280;36256;42.154;23.002;2022-07-01T05:26:15;97248.66;;;21.62;89.46
36630;BME280;36256;42.154;23.002;2022-07-01T05:28:44;97260.00;;;21.73;89.43
36630;BME280;36256;42.154;23.002;2022-07-01T05:31:14;97252.94;;;21.85;90.86
36630;BME280;36256;42.154;23.002;2022-07-01T05:33:41;97266.19;;;21.83;89.39
36630;BME280;36256;42.154;23.002;2022-07-01T05:36:07;97255.69;;;21.97;88.13
36630;BME280;36256;42.154;23.002;2022-07-01T05:38:34;97257.59;;;22.18;88.87
36630;BME280;36256;42.154;23.002;2022-07-01T05:41:00;97252.31;;;22.28;87.36
36630;BME280;36256;42.154;23.002;2022-07-01T05:43:27;97254.38;;;22.57;87.90
36630;BME280;36256;42.154;23.002;2022-07-01T05:45:54;97270.22;;;22.82;84.87
36630;BME280;36256;42.154;23.002;2022-07-01T05:48:20;97269.53;;;23.19;83.02
36630;BME280;36256;42.154;23.002;2022-07-01T05:50:47;97272.34;;;23.62;80.86
36630;BME280;36256;42.154;23.002;2022-07-01T05:53:14;97276.81;;;24.13;78.60
36630;BME280;36256;42.154;23.002;2022-07-01T05:55:41;97281.38;;;24.92;74.34
36630;BME280;36256;42.154;23.002;2022-07-01T05:58:10;97281.31;;;25.71;70.95
36630;BME280;36256;42.154;23.002;2022-07-01T06:00:37;97276.56;;;26.07;68.16
36630;BME280;36256;42.154;23.002;2022-07-01T06:03:04;97286.84;;;26.78;66.53
36630;BME280;36256;42.154;23.002;2022-07-01T06:05:31;97269.81;;;27.15;63.20
36630;BME280;36256;42.154;23.002;2022-07-01T06:07:57;97272.00;;;27.30;63.89
36630;BME280;36256;42.154;23.002;2022-07-01T06:10:24;97274.16;;;27.37;61.82
36630;BME280;36256;42.154;23.002;2022-07-01T06:12:51;97278.88;;;27.55;60.72
36630;BME280;36256;42.154;23.002;2022-07-01T06:15:17;97283.94;;;28.28;57.83
36630;BME280;36256;42.154;23.002;2022-07-01T06:17:44;97284.94;;;28.84;56.13
36630;BME280;36256;42.154;23.002;2022-07-01T06:20:11;97274.75;;;28.75;55.06
36630;BME280;36256;42.154;23.002;2022-07-01T06:22:38;97277.44;;;28.58;56.53
36630;BME280;36256;42.154;23.002;2022-07-01T06:25:04;97269.97;;;28.70;56.67
36630;BME280;36256;42.154;23.002;2022-07-01T06:27:31;97262.84;;;28.63;55.22
36630;BME280;36256;42.154;23.002;2022-07-01T06:29:58;97264.56;;;28.59;56.25
36630;BME280;36256;42.154;23.002;2022-07-01T06:32:24;97270.47;;;29.21;53.79
36630;BME280;36256;42.154;23.002;2022-07-01T06:34:51;97269.13;;;29.85;54.13
36630;BME280;36256;42.154;23.002;2022-07-01T06:37:18;97263.09;;;30.30;53.32
36630;BME280;36256;42.154;23.002;2022-07-01T06:39:46;97262.03;;;30.67;49.77
36630;BME280;36256;42.154;23.002;2022-07-01T06:42:13;97254.41;;;30.30;49.19
36630;BME280;36256;42.154;23.002;2022-07-01T06:44:40;97255.97;;;30.56;52.85
36630;BME280;36256;42.154;23.002;2022-07-01T06:47:07;97248.50;;;30.70;53.34
36630;BME280;36256;42.154;23.002;2022-07-01T06:49:34;97256.28;;;30.84;51.49
36630;BME280;36256;42.154;23.002;2022-07-01T06:52:01;97258.47;;;31.01;51.08
36630;BME280;36256;42.154;23.002;2022-07-01T06:54:28;97248.59;;;31.04;48.67
36630;BME280;36256;42.154;23.002;2022-07-01T06:56:54;97251.84;;;31.25;49.65
36630;BME280;36256;42.154;23.002;2022-07-01T06:59:21;97239.16;;;31.38;49.56
36630;BME280;36256;42.154;23.002;2022-07-01T07:01:48;97232.69;;;31.30;49.04
36630;BME280;36256;42.154;23.002;2022-07-01T07:04:15;97247.59;;;31.60;46.87
36630;BME280;36256;42.154;23.002;2022-07-01T07:06:49;97237.78;;;31.56;46.42
36630;BME280;36256;42.154;23.002;2022-07-01T07:09:16;97229.72;;;31.81;46.03
36630;BME280;36256;42.154;23.002;2022-07-01T07:11:42;97234.28;;;32.18;47.78
36630;BME280;36256;42.154;23.002;2022-07-01T07:14:09;97239.09;;;32.33;46.89
36630;BME280;36256;42.154;23.002;2022-07-01T07:16:35;97227.50;;;31.89;47.52
36630;BME280;36256;42.154;23.002;2022-07-01T07:19:02;97227.75;;;31.57;48.84
36630;BME280;36256;42.154;23.002;2022-07-01T07:21:29;97227.75;;;31.57;50.72
36630;BME280;36256;42.154;23.002;2022-07-01T07:23:55;97229.56;;;31.96;43.49
36630;BME280;36256;42.154;23.002;2022-07-01T07:26:23;97232.06;;;32.09;45.70
36630;BME280;36256;42.154;23.002;2022-07-01T07:28:50;97225.50;;;32.09;44.63
36630;BME280;36256;42.154;23.002;2022-07-01T07:31:17;97217.41;;;32.07;43.50
36630;BME280;36256;42.154;23.002;2022-07-01T07:33:44;97220.34;;;31.73;46.88
36630;BME280;36256;42.154;23.002;2022-07-01T07:36:10;97220.16;;;31.88;48.74
36630;BME280;36256;42.154;23.002;2022-07-01T07:38:37;97226.28;;;31.92;48.02
36630;BME280;36256;42.154;23.002;2022-07-01T07:41:05;97216.38;;;31.51;48.47
36630;BME280;36256;42.154;23.002;2022-07-01T07:43:31;97214.84;;;31.67;49.34
36630;BME280;36256;42.154;23.002;2022-07-01T07:45:58;97215.94;;;31.72;48.90
36630;BME280;36256;42.154;23.002;2022-07-01T07:48:24;97212.66;;;31.85;48.69
36630;BME280;36256;42.154;23.002;2022-07-01T07:50:51;97206.34;;;31.79;50.12
36630;BME280;36256;42.154;23.002;2022-07-01T07:53:18;97210.03;;;31.80;50.76
36630;BME280;36256;42.154;23.002;2022-07-01T07:55:44;97213.53;;;31.78;50.97
36630;BME280;36256;42.154;23.002;2022-07-01T07:58:11;97209.41;;;31.98;46.11
36630;BME280;36256;42.154;23.002;2022-07-01T08:00:37;97201.72;;;31.93;46.70
36630;BME280;36256;42.154;23.002;2022-07-01T08:03:06;97199.41;;;31.92;51.88
36630;BME280;36256;42.154;23.002;2022-07-01T08:05:32;97197.34;;;31.58;53.40
36630;BME280;36256;42.154;23.002;2022-07-01T08:07:59;97184.75;;;31.46;49.90
36630;BME280;36256;42.154;23.002;2022-07-01T08:10:25;97188.47;;;31.56;50.99
36630;BME280;36256;42.154;23.002;2022-07-01T08:12:52;97182.97;;;31.77;50.55
36630;BME280;36256;42.154;23.002;2022-07-01T08:15:19;97187.59;;;31.80;51.93
36630;BME280;36256;42.154;23.002;2022-07-01T08:17:45;97177.38;;;31.62;50.80
36630;BME280;36256;42.154;23.002;2022-07-01T08:20:12;97180.56;;;31.56;48.97
36630;BME280;36256;42.154;23.002;2022-07-01T08:22:39;97172.66;;;31.40;49.00
36630;BME280;36256;42.154;23.002;2022-07-01T08:25:06;97183.03;;;31.43;52.66
36630;BME280;36256;42.154;23.002;2022-07-01T08:27:32;97173.44;;;31.40;49.31
36630;BME280;36256;42.154;23.002;2022-07-01T08:29:59;97178.34;;;31.30;50.70
36630;BME280;36256;42.154;23.002;2022-07-01T08:32:26;97170.16;;;31.36;47.66
36630;BME280;36256;42.154;23.002;2022-07-01T08:34:52;97169.22;;;31.34;47.86
36630;BME280;36256;42.154;23.002;2022-07-01T08:37:19;97174.69;;;31.47;45.87
36630;BME280;36256;42.154;23.002;2022-07-01T08:39:46;97165.13;;;31.54;48.35
36630;BME280;36256;42.154;23.002;2022-07-01T08:42:12;97161.88;;;31.33;50.76
36630;BME280;36256;42.154;23.002;2022-07-01T08:47:52;97147.81;;;31.46;49.79
36630;BME280;36256;42.154;23.002;2022-07-01T08:50:18;97155.59;;;31.44;53.21
36630;BME280;36256;42.154;23.002;2022-07-01T08:52:49;97154.22;;;31.45;49.79
36630;BME280;36256;42.154;23.002;2022-07-01T08:55:15;97156.38;;;31.44;52.84
36630;BME280;36256;42.154;23.002;2022-07-01T08:57:42;97155.06;;;31.55;49.64
36630;BME280;36256;42.154;23.002;2022-07-01T09:00:09;97149.25;;;31.55;54.34
36630;BME280;36256;42.154;23.002;2022-07-01T09:05:50;97151.31;;;31.45;49.11
36630;BME280;36256;42.154;23.002;2022-07-01T09:08:18;97156.38;;;31.71;52.49
36630;BME280;36256;42.154;23.002;2022-07-01T09:10:45;97156.22;;;31.69;51.85
36630;BME280;36256;42.154;23.002;2022-07-01T09:13:13;97154.50;;;31.66;47.29
36630;BME280;36256;42.154;23.002;2022-07-01T09:15:41;97150.13;;;31.74;54.44
36630;BME280;36256;42.154;23.002;2022-07-01T09:18:13;97148.59;;;32.00;52.73
36630;BME280;36256;42.154;23.002;2022-07-01T09:20:42;97146.06;;;31.87;51.37
36630;BME280;36256;42.154;23.002;2022-07-01T09:23:13;97146.78;;;31.95;53.79
36630;BME280;36256;42.154;23.002;2022-07-01T09:25:47;97147.91;;;32.09;54.54
36630;BME280;36256;42.154;23.002;2022-07-01T09:28:23;97149.06;;;32.33;47.50
36630;BME280;36256;42.154;23.002;2022-07-01T09:30:55;97138.53;;;32.37;47.23
36630;BME280;36256;42.154;23.002;2022-07-01T09:33:28;97140.53;;;32.44;49.46
36630;BME280;36256;42.154;23.002;2022-07-01T09:35:58;97138.69;;;32.39;49.50
36630;BME280;36256;42.154;23.002;2022-07-01T09:42:07;97131.41;;;32.58;52.84
36630;BME280;36256;42.154;23.002;2022-07-01T09:44:33;97127.16;;;32.59;54.46
36630;BME280;36256;42.154;23.002;2022-07-01T09:47:00;97125.31;;;32.73;49.19
36630;BME280;36256;42.154;23.002;2022-07-01T09:49:28;97124.28;;;32.87;50.78
36630;BME280;36256;42.154;23.002;2022-07-01T09:51:55;97119.41;;;32.99;54.08
36630;BME280;36256;42.154;23.002;2022-07-01T09:54:21;97120.31;;;33.02;45.13
36630;BME280;36256;42.154;23.002;2022-07-01T09:57:17;97100.25;;;33.25;41.57
36630;BME280;36256;42.154;23.002;2022-07-01T09:59:57;97107.19;;;33.20;46.08
36630;BME280;36256;42.154;23.002;2022-07-01T10:06:52;97089.09;;;33.12;47.00
36630;BME280;36256;42.154;23.002;2022-07-01T10:18:50;97076.88;;;33.13;45.54
36630;BME280;36256;42.154;23.002;2022-07-01T10:21:27;97073.34;;;33.15;45.78
36630;BME280;36256;42.154;23.002;2022-07-01T10:27:19;97062.63;;;33.08;45.97
36630;BME280;36256;42.154;23.002;2022-07-01T10:29:46;97053.78;;;33.15;44.96
36630;BME280;36256;42.154;23.002;2022-07-01T10:35:46;97054.19;;;33.31;44.83
36630;BME280;36256;42.154;23.002;2022-07-01T10:42:16;97049.56;;;33.38;45.63
36630;BME280;36256;42.154;23.002;2022-07-01T10:45:05;97051.41;;;33.43;38.92
36630;BME280;36256;42.154;23.002;2022-07-01T10:51:49;97039.41;;;33.67;44.90
36630;BME280;36256;42.154;23.002;2022-07-01T10:57:52;97023.81;;;33.63;40.58
36630;BME280;36256;42.154;23.002;2022-07-01T11:03:19;97020.28;;;33.64;41.13
36630;BME280;36256;42.154;23.002;2022-07-01T11:06:08;97027.34;;;33.61;43.60
36630;BME280;36256;42.154;23.002;2022-07-01T11:08:34;97015.22;;;33.65;38.22
36630;BME280;36256;42.154;23.002;2022-07-01T11:11:02;97009.31;;;33.84;39.22
36630;BME280;36256;42.154;23.002;2022-07-01T11:13:38;97010.38;;;33.88;42.00
36630;BME280;36256;42.154;23.002;2022-07-01T11:16:23;97010.44;;;33.79;43.74
36630;BME280;36256;42.154;23.002;2022-07-01T11:18:50;97006.75;;;33.78;38.94
36630;BME280;36256;42.154;23.002;2022-07-01T11:21:48;97009.78;;;33.80;38.45
36630;BME280;36256;42.154;23.002;2022-07-01T11:24:16;97009.38;;;33.74;39.23
36630;BME280;36256;42.154;23.002;2022-07-01T11:30:31;97014.69;;;33.87;40.66
36630;BME280;36256;42.154;23.002;2022-07-01T11:33:32;97001.56;;;34.08;32.60
36630;BME280;36256;42.154;23.002;2022-07-01T11:36:07;96992.22;;;33.99;38.23
36630;BME280;36256;42.154;23.002;2022-07-01T11:39:13;96998.84;;;34.00;39.86
36630;BME280;36256;42.154;23.002;2022-07-01T11:49:16;96979.69;;;33.97;40.05
36630;BME280;36256;42.154;23.002;2022-07-01T11:51:54;96978.41;;;34.10;41.29
36630;BME280;36256;42.154;23.002;2022-07-01T11:54:21;96974.53;;;34.17;40.42
36630;BME280;36256;42.154;23.002;2022-07-01T11:56:51;96976.47;;;34.24;41.94
36630;BME280;36256;42.154;23.002;2022-07-01T11:59:18;96978.34;;;34.40;40.84
36630;BME280;36256;42.154;23.002;2022-07-01T12:01:55;96977.19;;;34.55;39.73
36630;BME280;36256;42.154;23.002;2022-07-01T12:07:49;96967.81;;;34.56;38.68
36630;BME280;36256;42.154;23.002;2022-07-01T12:10:47;96967.53;;;34.52;39.15
36630;BME280;36256;42.154;23.002;2022-07-01T12:17:04;96954.00;;;34.15;40.11
36630;BME280;36256;42.154;23.002;2022-07-01T12:19:45;96950.69;;;34.09;39.15
36630;BME280;36256;42.154;23.002;2022-07-01T12:22:26;96942.78;;;34.21;38.17
36630;BME280;36256;42.154;23.002;2022-07-01T12:25:08;96937.00;;;34.53;34.25
36630;BME280;36256;42.154;23.002;2022-07-01T12:27:36;96948.19;;;34.57;40.42
36630;BME280;36256;42.154;23.002;2022-07-01T12:30:06;96941.66;;;34.47;37.63
36630;BME280;36256;42.154;23.002;2022-07-01T12:32:38;96940.13;;;34.46;33.70
36630;BME280;36256;42.154;23.002;2022-07-01T12:35:08;96934.38;;;34.36;37.65
36630;BME280;36256;42.154;23.002;2022-07-01T12:41:49;96947.91;;;34.32;40.48
36630;BME280;36256;42.154;23.002;2022-07-01T12:44:24;96944.72;;;34.28;39.00
36630;BME280;36256;42.154;23.002;2022-07-01T12:46:51;96948.44;;;34.40;36.47
36630;BME280;36256;42.154;23.002;2022-07-01T12:49:27;96949.28;;;34.52;35.88
36630;BME280;36256;42.154;23.002;2022-07-01T12:51:54;96948.72;;;34.44;37.43
36630;BME280;36256;42.154;23.002;2022-07-01T12:54:30;96925.34;;;34.53;39.86
36630;BME280;36256;42.154;23.002;2022-07-01T12:56:58;96933.13;;;34.60;39.91
36630;BME280;36256;42.154;23.002;2022-07-01T12:59:26;96927.53;;;34.53;37.62
36630;BME280;36256;42.154;23.002;2022-07-01T13:01:53;96941.94;;;34.51;38.94
36630;BME280;36256;42.154;23.002;2022-07-01T13:04:27;96945.81;;;34.65;33.59
36630;BME280;36256;42.154;23.002;2022-07-01T13:06:55;96959.97;;;34.59;34.44
36630;BME280;36256;42.154;23.002;2022-07-01T13:09:21;96958.94;;;34.12;35.21
36630;BME280;36256;42.154;23.002;2022-07-01T13:11:48;96965.06;;;33.85;34.80
36630;BME280;36256;42.154;23.002;2022-07-01T13:14:15;96963.97;;;33.50;36.08
36630;BME280;36256;42.154;23.002;2022-07-01T13:16:41;96960.97;;;33.29;35.90
36630;BME280;36256;42.154;23.002;2022-07-01T13:19:08;96964.75;;;33.01;37.67
36630;BME280;36256;42.154;23.002;2022-07-01T13:21:35;96976.81;;;32.78;38.26
36630;BME280;36256;42.154;23.002;2022-07-01T13:24:01;96976.69;;;32.57;37.75
36630;BME280;36256;42.154;23.002;2022-07-01T13:26:48;96985.06;;;32.43;37.68
36630;BME280;36256;42.154;23.002;2022-07-01T13:29:15;96983.53;;;32.33;37.57
36630;BME280;36256;42.154;23.002;2022-07-01T13:31:41;96994.19;;;32.11;38.31
36630;BME280;36256;42.154;23.002;2022-07-01T13:34:08;97003.38;;;32.08;38.41
36630;BME280;36256;42.154;23.002;2022-07-01T13:36:57;97001.66;;;32.05;38.11
36630;BME280;36256;42.154;23.002;2022-07-01T13:39:23;97016.31;;;31.61;37.43
36630;BME280;36256;42.154;23.002;2022-07-01T13:41:50;97023.41;;;31.24;39.01
36630;BME280;36256;42.154;23.002;2022-07-01T13:44:17;97003.78;;;31.05;41.32
36630;BME280;36256;42.154;23.002;2022-07-01T13:46:43;97006.97;;;30.99;42.22
36630;BME280;36256;42.154;23.002;2022-07-01T13:49:13;97001.16;;;30.99;41.77
36630;BME280;36256;42.154;23.002;2022-07-01T13:51:40;97003.69;;;31.13;40.05
36630;BME280;36256;42.154;23.002;2022-07-01T13:54:07;97010.69;;;31.36;40.82
36630;BME280;36256;42.154;23.002;2022-07-01T13:56:35;97000.50;;;31.45;39.52
36630;BME280;36256;42.154;23.002;2022-07-01T13:59:02;96995.06;;;31.49;37.95
36630;BME280;36256;42.154;23.002;2022-07-01T14:01:29;96986.63;;;31.43;40.28
36630;BME280;36256;42.154;23.002;2022-07-01T14:03:56;96985.72;;;31.24;39.40
36630;BME280;36256;42.154;23.002;2022-07-01T14:06:23;96987.50;;;31.10;39.36
36630;BME280;36256;42.154;23.002;2022-07-01T14:08:49;96984.38;;;30.98;39.59
36630;BME280;36256;42.154;23.002;2022-07-01T14:14:36;97013.88;;;30.87;45.45
36630;BME280;36256;42.154;23.002;2022-07-01T14:17:03;97004.75;;;30.73;43.03
36630;BME280;36256;42.154;23.002;2022-07-01T14:19:29;97000.34;;;30.72;41.38
36630;BME280;36256;42.154;23.002;2022-07-01T14:21:56;97005.03;;;30.68;42.12
36630;BME280;36256;42.154;23.002;2022-07-01T14:24:22;97000.34;;;30.72;41.05
36630;BME280;36256;42.154;23.002;2022-07-01T14:26:49;96993.97;;;30.57;42.51
36630;BME280;36256;42.154;23.002;2022-07-01T14:29:16;97002.91;;;30.51;42.72
36630;BME280;36256;42.154;23.002;2022-07-01T14:31:42;96999.09;;;30.49;47.23
36630;BME280;36256;42.154;23.002;2022-07-01T14:34:09;96997.53;;;30.48;47.40
36630;BME280;36256;42.154;23.002;2022-07-01T14:36:36;97004.09;;;30.48;53.25
36630;BME280;36256;42.154;23.002;2022-07-01T14:39:03;97001.47;;;30.43;53.70